createdAt,value
2022-08-30T00:01:24.591Z,541
2022-08-30T00:06:42.788Z,551
2022-08-30T00:12:01.555Z,578
2022-08-30T00:17:20.037Z,594
2022-08-30T00:22:38.787Z,600
2022-08-30T00:27:57.590Z,605
2022-08-30T00:33:15.731Z,599
2022-08-30T00:38:34.516Z,608
2022-08-30T00:43:53.037Z,600
2022-08-30T00:49:11.504Z,602
2022-08-30T00:54:29.413Z,615
2022-08-30T00:59:47.640Z,622
2022-08-30T01:05:06.120Z,635
2022-08-30T01:10:24.873Z,632
2022-08-30T01:15:43.185Z,612
2022-08-30T01:21:03.420Z,569
2022-08-30T01:26:22.250Z,542
2022-08-30T01:31:40.853Z,522
2022-08-30T01:36:59.313Z,523
2022-08-30T01:42:18.109Z,517
2022-08-30T01:47:36.587Z,520
2022-08-30T01:52:55.079Z,512
2022-08-30T01:58:13.562Z,525
2022-08-30T02:03:31.879Z,529
2022-08-30T02:08:50.521Z,543
2022-08-30T02:14:08.735Z,558
2022-08-30T02:19:26.958Z,537
2022-08-30T02:24:45.169Z,542
2022-08-30T02:30:03.663Z,547
2022-08-30T02:35:22.132Z,561
2022-08-30T02:40:40.993Z,558
2022-08-30T02:45:59.859Z,544
2022-08-30T02:51:18.171Z,530
2022-08-30T02:56:36.953Z,514
2022-08-30T03:01:55.415Z,503
2022-08-30T03:07:13.931Z,493
2022-08-30T03:12:32.685Z,499
2022-08-30T03:17:53.042Z,502
2022-08-30T03:23:11.508Z,525
2022-08-30T03:28:40.488Z,521
2022-08-30T03:33:58.679Z,519
2022-08-30T03:39:17.183Z,538
2022-08-30T03:44:35.954Z,656
2022-08-30T03:49:56.376Z,600
2022-08-30T03:55:15.104Z,521
2022-08-30T04:00:33.595Z,495
2022-08-30T04:05:51.517Z,531
2022-08-30T04:11:10.014Z,516
2022-08-30T04:16:28.824Z,513
2022-08-30T04:21:47.487Z,507
2022-08-30T04:27:05.414Z,507
2022-08-30T04:32:24.171Z,520
2022-08-30T04:37:42.096Z,537
2022-08-30T04:43:00.868Z,523
2022-08-30T04:48:19.058Z,524
2022-08-30T04:53:37.277Z,525
2022-08-30T04:58:55.770Z,524
2022-08-30T05:04:14.258Z,532
2022-08-30T05:09:32.714Z,539
2022-08-30T05:14:50.675Z,524
2022-08-30T05:20:08.863Z,510
2022-08-30T05:25:27.051Z,505
2022-08-30T05:30:45.507Z,507
2022-08-30T05:36:03.414Z,505
2022-08-30T05:41:21.622Z,504
2022-08-30T05:46:40.355Z,502
2022-08-30T05:51:58.866Z,506
2022-08-30T05:57:17.369Z,505
2022-08-30T06:02:36.165Z,496
2022-08-30T06:07:54.453Z,494
2022-08-30T06:13:13.232Z,493
2022-08-30T06:18:31.734Z,481
2022-08-30T06:23:50.185Z,480
2022-08-30T06:29:08.946Z,478
2022-08-30T06:34:27.715Z,471
2022-08-30T06:39:46.188Z,464
2022-08-30T06:45:10.374Z,460
2022-08-30T06:50:29.151Z,458
2022-08-30T06:55:47.423Z,461
2022-08-30T07:01:06.602Z,477
2022-08-30T07:06:24.803Z,472
2022-08-30T07:11:43.312Z,468
2022-08-30T07:17:01.773Z,462
2022-08-30T07:22:19.970Z,462
2022-08-30T07:27:38.193Z,460
2022-08-30T07:32:56.583Z,464
2022-08-30T07:38:15.373Z,465
2022-08-30T07:43:34.143Z,460
2022-08-30T07:48:52.308Z,456
2022-08-30T07:54:11.245Z,454
2022-08-30T07:59:30.877Z,452
2022-08-30T08:04:54.486Z,455
2022-08-30T08:10:12.926Z,458
2022-08-30T08:15:31.783Z,456
2022-08-30T08:20:50.552Z,456
2022-08-30T08:26:14.503Z,459
2022-08-30T08:31:33.695Z,463
2022-08-30T08:36:52.707Z,466
2022-08-30T08:42:11.218Z,474
2022-08-30T08:47:29.386Z,468
2022-08-30T08:52:47.887Z,469
2022-08-30T08:58:06.366Z,464
2022-08-30T09:03:24.571Z,470
2022-08-30T09:08:43.009Z,487
2022-08-30T09:14:01.272Z,487
2022-08-30T09:19:21.688Z,483
2022-08-30T09:24:40.185Z,479
2022-08-30T09:30:01.851Z,481
2022-08-30T09:35:20.613Z,481
2022-08-30T09:40:39.436Z,484
2022-08-30T09:45:57.442Z,495
2022-08-30T09:51:15.650Z,501
2022-08-30T09:56:34.443Z,512
2022-08-30T10:01:53.166Z,510
2022-08-30T10:07:12.001Z,510
2022-08-30T10:12:30.191Z,504
2022-08-30T10:17:48.513Z,499
2022-08-30T10:23:06.553Z,496
2022-08-30T10:28:25.197Z,491
2022-08-30T10:33:43.987Z,495
2022-08-30T10:39:02.461Z,485
2022-08-30T10:44:22.360Z,474
2022-08-30T10:49:41.289Z,470
2022-08-30T10:54:59.729Z,474
2022-08-30T11:00:19.061Z,475
2022-08-30T11:05:37.548Z,477
2022-08-30T11:11:00.195Z,470
2022-08-30T11:16:18.403Z,466
2022-08-30T11:21:39.049Z,468
2022-08-30T11:26:57.269Z,468
2022-08-30T11:32:15.775Z,464
2022-08-30T11:37:34.333Z,452
2022-08-30T11:42:52.675Z,454
2022-08-30T11:48:11.686Z,453
2022-08-30T11:53:30.201Z,453
2022-08-30T11:58:49.040Z,445
2022-08-30T12:04:09.776Z,443
2022-08-30T12:09:33.880Z,586
2022-08-30T12:14:52.345Z,504
2022-08-30T12:20:10.811Z,479
2022-08-30T12:25:29.305Z,474
2022-08-30T12:30:48.409Z,485
2022-08-30T12:36:07.205Z,498
2022-08-30T12:41:28.071Z,482
2022-08-30T12:46:47.961Z,477
2022-08-30T12:52:07.401Z,514
2022-08-30T12:57:35.070Z,493
2022-08-30T13:02:53.527Z,483
2022-08-30T13:08:12.285Z,471
2022-08-30T13:13:31.149Z,472
2022-08-30T13:18:49.953Z,483
2022-08-30T13:24:08.681Z,481
2022-08-30T13:29:27.142Z,449
2022-08-30T13:34:45.892Z,436
2022-08-30T13:40:04.965Z,435
2022-08-30T13:45:42.821Z,429
2022-08-30T13:51:01.785Z,421
2022-08-30T13:56:21.358Z,440
2022-08-30T14:07:29.881Z,465
2022-08-30T14:12:53.023Z,494
2022-08-30T14:18:17.928Z,553
2022-08-30T14:23:41.725Z,525
2022-08-30T14:29:00.450Z,512
2022-08-30T14:34:19.225Z,506
2022-08-30T14:39:37.701Z,501
2022-08-30T14:44:57.006Z,511
2022-08-30T14:50:15.277Z,519
2022-08-30T14:55:33.865Z,529
2022-08-30T15:00:52.118Z,528
2022-08-30T15:06:10.495Z,528
2022-08-30T15:11:29.559Z,525
2022-08-30T15:16:51.547Z,524
2022-08-30T15:22:10.160Z,515
2022-08-30T15:27:28.630Z,500
2022-08-30T15:32:48.662Z,494
2022-08-30T15:38:07.431Z,492
2022-08-30T15:43:30.132Z,497
2022-08-30T15:48:52.308Z,516
2022-08-30T15:54:11.451Z,525
2022-08-30T15:59:30.275Z,534
2022-08-30T16:04:49.022Z,540
2022-08-30T16:10:11.185Z,542
2022-08-30T16:15:30.715Z,548
2022-08-30T16:20:49.183Z,547
2022-08-30T16:26:09.128Z,552
2022-08-30T16:31:34.996Z,562
2022-08-30T16:36:53.286Z,574
2022-08-30T16:42:11.959Z,591
2022-08-30T16:47:30.441Z,618
2022-08-30T16:52:49.179Z,646
2022-08-30T16:58:07.639Z,659
2022-08-30T17:03:36.475Z,688
2022-08-30T17:08:57.167Z,703
2022-08-30T17:14:17.034Z,698
2022-08-30T17:19:47.311Z,665
2022-08-30T17:25:06.119Z,675
2022-08-30T17:30:25.548Z,656
2022-08-30T17:35:44.276Z,633
2022-08-30T17:41:03.020Z,580
2022-08-30T17:46:25.194Z,549
2022-08-30T17:51:47.662Z,545
2022-08-30T17:57:12.009Z,546
2022-08-30T18:02:31.122Z,549
2022-08-30T18:07:49.742Z,548
2022-08-30T18:13:07.680Z,550
2022-08-30T18:18:27.058Z,549
2022-08-30T18:23:46.619Z,548
2022-08-30T18:29:05.080Z,544
2022-08-30T18:34:23.567Z,536
2022-08-30T18:39:41.769Z,551
2022-08-30T18:45:08.115Z,552
2022-08-30T18:50:33.257Z,553
2022-08-30T18:55:51.720Z,560
2022-08-30T19:01:10.175Z,553
2022-08-30T19:06:31.138Z,538
2022-08-30T19:11:49.130Z,513
2022-08-30T19:17:10.391Z,500
2022-08-30T19:22:36.058Z,501
2022-08-30T19:28:27.993Z,499
2022-08-30T19:33:46.434Z,509
2022-08-30T19:39:04.923Z,505
2022-08-30T19:44:24.238Z,507
2022-08-30T19:49:42.738Z,519
2022-08-30T19:55:00.951Z,532
2022-08-30T20:00:19.742Z,536
2022-08-30T20:05:38.487Z,547
2022-08-30T20:10:56.695Z,592
2022-08-30T20:16:15.171Z,599
2022-08-30T20:21:34.425Z,580
2022-08-30T20:26:54.598Z,578
2022-08-30T20:32:13.082Z,559
2022-08-30T20:37:31.579Z,549
2022-08-30T20:42:49.774Z,550
2022-08-30T20:48:07.971Z,561
2022-08-30T20:53:26.745Z,564
2022-08-30T20:58:44.929Z,576
2022-08-30T21:04:03.728Z,608
2022-08-30T21:09:22.158Z,613
2022-08-30T21:14:40.953Z,607
2022-08-30T21:19:59.125Z,586
2022-08-30T21:25:18.153Z,576
2022-08-30T21:30:36.423Z,561
2022-08-30T21:35:54.526Z,572
2022-08-30T21:41:12.980Z,570
2022-08-30T21:46:31.521Z,557
2022-08-30T21:51:50.283Z,538
2022-08-30T21:57:08.752Z,523
2022-08-30T22:02:27.282Z,515
2022-08-30T22:07:45.883Z,521
2022-08-30T22:13:04.364Z,523
2022-08-30T22:18:22.575Z,528
2022-08-30T22:23:41.368Z,523
2022-08-30T22:28:59.560Z,548
2022-08-30T22:34:18.305Z,558
2022-08-30T22:39:36.845Z,562
2022-08-30T22:44:55.291Z,568
2022-08-30T22:50:13.797Z,568
2022-08-30T22:55:32.276Z,560
2022-08-30T23:00:54.468Z,560
2022-08-30T23:06:14.383Z,560
2022-08-30T23:11:33.229Z,555
2022-08-30T23:16:52.443Z,548
2022-08-30T23:22:10.830Z,533
2022-08-30T23:27:29.287Z,529
2022-08-30T23:32:47.815Z,527
2022-08-30T23:38:06.541Z,526
2022-08-30T23:43:25.020Z,515
2022-08-30T23:48:47.763Z,512
2022-08-30T23:54:10.220Z,516
2022-08-30T23:59:28.704Z,532
